WXM80 ListenWXM80 Stop

You find our weather info also at:

UK Metoffice

WeatherCloud

Weather Underground

Northeastern Weather Network

AWEKAS

Citizen Weather Observer Program (CWOP)

HAMweather, WeatherForYou, PWS Weather


Weather Underground History page Text

Daily Summary for March 2, 2018 Units:  Both    English   Metric
« Previous Day
Next Day »
Daily Weekly Monthly Yearly Custom
  High: Low: Average:
Temperature: 41.8 °F /  5.4 °C 36.8 °F /  2.7 °C 38.6 °F /  3.7 °C
Dew Point: 40.3 °F /  4.6 °C 33.1 °F /  0.6 °C 36.9 °F /  2.7 °C
Humidity: 97 % 84 % 94 %
Wind Speed: 19.2 mph /  30.9 km/h - 10.4 mph /  16.7 km/h
Wind Gust: 38.0 mph /  61.2 km/h - -
Wind:- - SSE
Pressure: 29.47 in /  997.9 hPa 28.93 in /  979.6 hPa -
Precipitation: 2.67 in /  67.82 mm    
Historical Graphs
 
 
Tabular Data for March 2, 2018
Time Temperature Dew Point Pressure Wind Wind Speed Wind Gust Humidity Rainfall Rate (Hourly)
00:02 41.8 °F /  5.4 °C 40.2 °F /  4.6 °C 29.29 in /  991.8 hPa East 10.8 mph /  17.4 km/h 13.8 mph /  22.2 km/h 94 % 0.05 in /  1.27 mm
00:07 41.8 °F /  5.4 °C 40.2 °F /  4.6 °C 29.28 in /  991.4 hPa East 10.5 mph /  16.9 km/h 17.3 mph /  27.8 km/h 94 % 0.05 in /  1.27 mm
00:12 41.7 °F /  5.4 °C 40.1 °F /  4.5 °C 29.28 in /  991.4 hPa East 11.9 mph /  19.2 km/h 15.0 mph /  24.1 km/h 94 % 0.04 in /  1.02 mm
00:17 41.7 °F /  5.4 °C 40.1 °F /  4.5 °C 29.27 in /  991.1 hPa East 12.5 mph /  20.1 km/h 16.0 mph /  25.7 km/h 94 % 0.04 in /  1.02 mm
00:22 41.6 °F /  5.3 °C 40.0 °F /  4.4 °C 29.27 in /  991.1 hPa East 13.3 mph /  21.4 km/h 17.3 mph /  27.8 km/h 94 % 0.03 in /  0.76 mm
00:27 41.6 °F /  5.3 °C 40.0 °F /  4.4 °C 29.26 in /  990.7 hPa East 12.9 mph /  20.8 km/h 15.0 mph /  24.1 km/h 94 % 0.04 in /  1.02 mm
00:32 41.6 °F /  5.3 °C 40.0 °F /  4.4 °C 29.26 in /  990.7 hPa East 14.3 mph /  23 km/h 16.1 mph /  25.9 km/h 94 % 0.03 in /  0.76 mm
00:37 41.6 °F /  5.3 °C 40.3 °F /  4.6 °C 29.26 in /  990.7 hPa ENE 12.7 mph /  20.4 km/h 16.1 mph /  25.9 km/h 95 % 0.04 in /  1.02 mm
00:42 41.6 °F /  5.3 °C 40.3 °F /  4.6 °C 29.25 in /  990.4 hPa East 12.1 mph /  19.5 km/h 15.0 mph /  24.1 km/h 95 % 0.04 in /  1.02 mm
00:47 41.4 °F /  5.2 °C 40.1 °F /  4.5 °C 29.24 in /  990.1 hPa ENE 11.9 mph /  19.2 km/h 15.0 mph /  24.1 km/h 95 % 0.04 in /  1.02 mm
00:52 41.2 °F /  5.1 °C 39.9 °F /  4.4 °C 29.24 in /  990.1 hPa East 11.7 mph /  18.8 km/h 13.8 mph /  22.2 km/h 95 % 0.05 in /  1.27 mm
00:57 41.1 °F /  5.1 °C 39.8 °F /  4.3 °C 29.24 in /  990.1 hPa East 9.8 mph /  15.8 km/h 11.5 mph /  18.5 km/h 95 % 0.05 in /  1.27 mm
01:02 41.0 °F /  5 °C 39.7 °F /  4.3 °C 29.23 in /  989.7 hPa ENE 10.6 mph /  17.1 km/h 18.4 mph /  29.6 km/h 95 % 0.06 in /  1.52 mm
01:08 40.9 °F /  4.9 °C 39.6 °F /  4.2 °C 29.23 in /  989.7 hPa ENE 9.2 mph /  14.8 km/h 11.5 mph /  18.5 km/h 95 % 0.07 in /  1.78 mm
01:13 40.9 °F /  4.9 °C 39.6 °F /  4.2 °C 29.23 in /  989.7 hPa ENE 8.4 mph /  13.5 km/h 13.0 mph /  20.9 km/h 95 % 0.08 in /  2.03 mm
01:18 40.8 °F /  4.9 °C 39.5 °F /  4.2 °C 29.22 in /  989.4 hPa East 9.9 mph /  15.9 km/h 12.7 mph /  20.4 km/h 95 % 0.10 in /  2.54 mm
01:23 40.7 °F /  4.8 °C 39.4 °F /  4.1 °C 29.21 in /  989.1 hPa ENE 7.2 mph /  11.6 km/h 12.7 mph /  20.4 km/h 95 % 0.11 in /  2.79 mm
01:28 40.7 °F /  4.8 °C 39.6 °F /  4.2 °C 29.21 in /  989.1 hPa East 10.3 mph /  16.6 km/h 15.0 mph /  24.1 km/h 96 % 0.12 in /  3.05 mm
01:33 40.9 °F /  4.9 °C 39.8 °F /  4.3 °C 29.20 in /  988.7 hPa East 8.7 mph /  14 km/h 13.8 mph /  22.2 km/h 96 % 0.14 in /  3.56 mm
01:38 40.9 °F /  4.9 °C 39.8 °F /  4.3 °C 29.20 in /  988.7 hPa ENE 10.0 mph /  16.1 km/h 14.0 mph /  22.5 km/h 96 % 0.15 in /  3.81 mm
01:43 40.9 °F /  4.9 °C 39.8 °F /  4.3 °C 29.19 in /  988.4 hPa ENE 12.0 mph /  19.3 km/h 16.1 mph /  25.9 km/h 96 % 0.17 in /  4.32 mm
01:48 40.9 °F /  4.9 °C 39.8 °F /  4.3 °C 29.17 in /  987.7 hPa East 11.5 mph /  18.5 km/h 19.6 mph /  31.5 km/h 96 % 0.17 in /  4.32 mm
01:53 40.9 °F /  4.9 °C 39.8 °F /  4.3 °C 29.17 in /  987.7 hPa ENE 11.0 mph /  17.7 km/h 16.1 mph /  25.9 km/h 96 % 0.18 in /  4.57 mm
01:58 40.8 °F /  4.9 °C 39.7 °F /  4.3 °C 29.17 in /  987.7 hPa ENE 8.0 mph /  12.9 km/h 12.7 mph /  20.4 km/h 96 % 0.20 in /  5.08 mm
02:03 40.8 °F /  4.9 °C 39.7 °F /  4.3 °C 29.17 in /  987.7 hPa ENE 10.4 mph /  16.7 km/h 14.0 mph /  22.5 km/h 96 % 0.20 in /  5.08 mm
02:08 40.8 °F /  4.9 °C 39.7 °F /  4.3 °C 29.16 in /  987.4 hPa ENE 9.1 mph /  14.6 km/h 11.5 mph /  18.5 km/h 96 % 0.20 in /  5.08 mm
02:13 40.8 °F /  4.9 °C 39.7 °F /  4.3 °C 29.16 in /  987.4 hPa NE 8.0 mph /  12.9 km/h 13.8 mph /  22.2 km/h 96 % 0.20 in /  5.08 mm
02:18 40.8 °F /  4.9 °C 39.7 °F /  4.3 °C 29.15 in /  987 hPa NE 9.7 mph /  15.6 km/h 12.7 mph /  20.4 km/h 96 % 0.20 in /  5.08 mm
02:23 40.8 °F /  4.9 °C 39.7 °F /  4.3 °C 29.14 in /  986.7 hPa ENE 8.8 mph /  14.2 km/h 13.0 mph /  20.9 km/h 96 % 0.22 in /  5.59 mm
02:28 40.7 °F /  4.8 °C 39.6 °F /  4.2 °C 29.14 in /  986.7 hPa ENE 8.3 mph /  13.4 km/h 13.8 mph /  22.2 km/h 96 % 0.22 in /  5.59 mm
02:33 40.8 °F /  4.9 °C 39.7 °F /  4.3 °C 29.13 in /  986.3 hPa ENE 7.7 mph /  12.4 km/h 13.8 mph /  22.2 km/h 96 % 0.22 in /  5.59 mm
02:38 40.7 °F /  4.8 °C 39.6 °F /  4.2 °C 29.13 in /  986.3 hPa NE 8.8 mph /  14.2 km/h 13.8 mph /  22.2 km/h 96 % 0.22 in /  5.59 mm
02:43 40.7 °F /  4.8 °C 39.6 °F /  4.2 °C 29.12 in /  986 hPa ENE 10.0 mph /  16.1 km/h 12.7 mph /  20.4 km/h 96 % 0.21 in /  5.33 mm
02:48 40.6 °F /  4.8 °C 39.5 °F /  4.2 °C 29.13 in /  986.3 hPa NE 9.8 mph /  15.8 km/h 12.7 mph /  20.4 km/h 96 % 0.21 in /  5.33 mm
02:53 40.6 °F /  4.8 °C 39.5 °F /  4.2 °C 29.12 in /  986 hPa East 8.3 mph /  13.4 km/h 12.7 mph /  20.4 km/h 96 % 0.21 in /  5.33 mm
02:54 40.6 °F /  4.8 °C 39.5 °F /  4.2 °C 29.12 in /  986 hPa ENE 8.6 mph /  13.8 km/h 11.5 mph /  18.5 km/h 96 % 0.21 in /  5.33 mm
02:59 40.6 °F /  4.8 °C 39.8 °F /  4.3 °C 29.12 in /  986 hPa ENE 9.2 mph /  14.8 km/h 12.7 mph /  20.4 km/h 97 % 0.21 in /  5.33 mm
03:04 40.6 °F /  4.8 °C 39.8 °F /  4.3 °C 29.11 in /  985.7 hPa ENE 8.9 mph /  14.3 km/h 11.5 mph /  18.5 km/h 97 % 0.21 in /  5.33 mm
03:09 40.6 °F /  4.8 °C 39.8 °F /  4.3 °C 29.11 in /  985.7 hPa East 7.5 mph /  12.1 km/h 10.0 mph /  16.1 km/h 97 % 0.21 in /  5.33 mm
03:14 40.6 °F /  4.8 °C 39.8 °F /  4.3 °C 29.11 in /  985.7 hPa NE 8.6 mph /  13.8 km/h 11.5 mph /  18.5 km/h 97 % 0.23 in /  5.84 mm
03:19 40.6 °F /  4.8 °C 39.8 °F /  4.3 °C 29.11 in /  985.7 hPa ENE 4.8 mph /  7.7 km/h 8.1 mph /  13 km/h 97 % 0.22 in /  5.59 mm
03:24 40.6 °F /  4.8 °C 39.8 °F /  4.3 °C 29.11 in /  985.7 hPa NNE 3.0 mph /  4.8 km/h 4.0 mph /  6.4 km/h 97 % 0.22 in /  5.59 mm
03:29 40.6 °F /  4.8 °C 39.8 °F /  4.3 °C 29.11 in /  985.7 hPa NE 3.9 mph /  6.3 km/h 5.8 mph /  9.3 km/h 97 % 0.21 in /  5.33 mm
03:34 40.6 °F /  4.8 °C 39.8 °F /  4.3 °C 29.10 in /  985.3 hPa NE 4.5 mph /  7.2 km/h 8.1 mph /  13 km/h 97 % 0.22 in /  5.59 mm
03:39 40.5 °F /  4.7 °C 39.7 °F /  4.3 °C 29.10 in /  985.3 hPa NNE 8.6 mph /  13.8 km/h 12.7 mph /  20.4 km/h 97 % 0.22 in /  5.59 mm
03:44 40.5 °F /  4.7 °C 39.4 °F /  4.1 °C 29.09 in /  985 hPa NNE 4.9 mph /  7.9 km/h 10.4 mph /  16.7 km/h 96 % 0.25 in /  6.35 mm
03:49 40.4 °F /  4.7 °C 39.4 °F /  4.1 °C 29.09 in /  985 hPa NE 5.9 mph /  9.5 km/h 12.7 mph /  20.4 km/h 96 % 0.26 in /  6.6 mm
03:54 40.3 °F /  4.6 °C 39.3 °F /  4.1 °C 29.09 in /  985 hPa NNE 8.7 mph /  14 km/h 11.5 mph /  18.5 km/h 96 % 0.28 in /  7.11 mm
03:59 40.2 °F /  4.6 °C 39.2 °F /  4 °C 29.08 in /  984.6 hPa NNE 9.4 mph /  15.1 km/h 12.7 mph /  20.4 km/h 96 % 0.29 in /  7.37 mm
04:05 40.1 °F /  4.5 °C 39.3 °F /  4.1 °C 29.08 in /  984.6 hPa NE 9.5 mph /  15.3 km/h 12.7 mph /  20.4 km/h 97 % 0.31 in /  7.87 mm
04:10 40.1 °F /  4.5 °C 39.3 °F /  4.1 °C 29.07 in /  984.3 hPa NNE 9.9 mph /  15.9 km/h 12.7 mph /  20.4 km/h 97 % 0.32 in /  8.13 mm
04:15 40.0 °F /  4.4 °C 39.2 °F /  4 °C 29.06 in /  984 hPa NNE 12.3 mph /  19.8 km/h 17.0 mph /  27.4 km/h 97 % 0.30 in /  7.62 mm
04:20 39.8 °F /  4.3 °C 38.8 °F /  3.8 °C 29.06 in /  984 hPa NNE 7.9 mph /  12.7 km/h 14.0 mph /  22.5 km/h 96 % 0.30 in /  7.62 mm
04:25 39.8 °F /  4.3 °C 38.8 °F /  3.8 °C 29.06 in /  984 hPa NE 7.9 mph /  12.7 km/h 12.0 mph /  19.3 km/h 96 % 0.29 in /  7.37 mm
04:30 39.7 °F /  4.3 °C 38.7 °F /  3.7 °C 29.07 in /  984.3 hPa NNW 6.5 mph /  10.5 km/h 12.7 mph /  20.4 km/h 96 % 0.28 in /  7.11 mm
04:35 39.7 °F /  4.3 °C 38.9 °F /  3.8 °C 29.05 in /  983.6 hPa NNE 7.3 mph /  11.7 km/h 11.5 mph /  18.5 km/h 97 % 0.28 in /  7.11 mm
04:40 39.7 °F /  4.3 °C 38.9 °F /  3.8 °C 29.04 in /  983.3 hPa NNE 8.4 mph /  13.5 km/h 12.0 mph /  19.3 km/h 97 % 0.26 in /  6.6 mm
04:45 39.7 °F /  4.3 °C 38.9 °F /  3.8 °C 29.04 in /  983.3 hPa NNE 8.3 mph /  13.4 km/h 13.0 mph /  20.9 km/h 97 % 0.24 in /  6.1 mm
04:50 39.6 °F /  4.2 °C 38.8 °F /  3.8 °C 29.03 in /  983 hPa NNE 9.7 mph /  15.6 km/h 15.0 mph /  24.1 km/h 97 % 0.22 in /  5.59 mm
04:55 39.6 °F /  4.2 °C 38.8 °F /  3.8 °C 29.04 in /  983.3 hPa NNE 7.6 mph /  12.2 km/h 11.5 mph /  18.5 km/h 97 % 0.19 in /  4.83 mm
05:00 39.5 °F /  4.2 °C 38.7 °F /  3.7 °C 29.04 in /  983.3 hPa NNE 11.5 mph /  18.5 km/h 16.1 mph /  25.9 km/h 97 % 0.17 in /  4.32 mm
05:05 39.4 °F /  4.1 °C 38.6 °F /  3.7 °C 29.03 in /  983 hPa NE 8.6 mph /  13.8 km/h 12.7 mph /  20.4 km/h 97 % 0.16 in /  4.06 mm
05:10 39.3 °F /  4.1 °C 38.5 °F /  3.6 °C 29.03 in /  983 hPa North 5.0 mph /  8 km/h 11.5 mph /  18.5 km/h 97 % 0.15 in /  3.81 mm
05:15 39.3 °F /  4.1 °C 38.5 °F /  3.6 °C 29.03 in /  983 hPa NNE 6.0 mph /  9.7 km/h 9.2 mph /  14.8 km/h 97 % 0.17 in /  4.32 mm
05:20 39.2 °F /  4 °C 38.4 °F /  3.6 °C 29.03 in /  983 hPa NNE 7.4 mph /  11.9 km/h 11.5 mph /  18.5 km/h 97 % 0.18 in /  4.57 mm
05:25 39.1 °F /  3.9 °C 38.3 °F /  3.5 °C 29.03 in /  983 hPa NNE 9.7 mph /  15.6 km/h 13.8 mph /  22.2 km/h 97 % 0.20 in /  5.08 mm
05:30 39.0 °F /  3.9 °C 38.2 °F /  3.4 °C 29.02 in /  982.6 hPa NE 9.6 mph /  15.4 km/h 11.5 mph /  18.5 km/h 97 % 0.21 in /  5.33 mm
05:35 38.9 °F /  3.8 °C 38.1 °F /  3.4 °C 29.01 in /  982.3 hPa NNE 12.6 mph /  20.3 km/h 16.1 mph /  25.9 km/h 97 % 0.22 in /  5.59 mm
05:41 38.8 °F /  3.8 °C 38.0 °F /  3.3 °C 29.01 in /  982.3 hPa NNE 10.1 mph /  16.3 km/h 15.0 mph /  24.1 km/h 97 % 0.23 in /  5.84 mm
05:46 38.8 °F /  3.8 °C 37.7 °F /  3.2 °C 29.01 in /  982.3 hPa NNE 9.0 mph /  14.5 km/h 17.0 mph /  27.4 km/h 96 % 0.01 in /  0.25 mm
05:51 38.7 °F /  3.7 °C 37.7 °F /  3.2 °C 29.01 in /  982.3 hPa NNE 8.0 mph /  12.9 km/h 17.0 mph /  27.4 km/h 96 % 0.01 in /  0.25 mm
05:56 38.6 °F /  3.7 °C 37.6 °F /  3.1 °C 29.01 in /  982.3 hPa NNE 10.0 mph /  16.1 km/h 18.0 mph /  29 km/h 96 % 0.00 in /  0 mm
06:01 38.5 °F /  3.6 °C 37.5 °F /  3.1 °C 29.01 in /  982.3 hPa NNE 11.4 mph /  18.3 km/h 16.0 mph /  25.7 km/h 96 % 0.28 in /  7.11 mm
06:06 38.5 °F /  3.6 °C 37.7 °F /  3.2 °C 29.01 in /  982.3 hPa North 10.0 mph /  16.1 km/h 18.4 mph /  29.6 km/h 97 % 0.27 in /  6.86 mm
06:11 38.4 °F /  3.6 °C 37.6 °F /  3.1 °C 29.02 in /  982.6 hPa NNE 9.0 mph /  14.5 km/h 16.0 mph /  25.7 km/h 97 % 0.00 in /  0 mm
06:16 38.3 °F /  3.5 °C 37.6 °F /  3.1 °C 29.02 in /  982.6 hPa NNE 8.0 mph /  12.9 km/h 16.0 mph /  25.7 km/h 97 % 0.00 in /  0 mm
06:21 38.3 °F /  3.5 °C 37.5 °F /  3.1 °C 29.02 in /  982.6 hPa NNE 8.0 mph /  12.9 km/h 16.0 mph /  25.7 km/h 97 % 0.00 in /  0 mm
06:26 38.2 °F /  3.4 °C 37.4 °F /  3 °C 29.02 in /  982.6 hPa NNE 12.0 mph /  19.3 km/h 17.0 mph /  27.4 km/h 97 % 0.00 in /  0 mm
06:31 38.2 °F /  3.4 °C 37.2 °F /  2.9 °C 29.02 in /  982.6 hPa NNE 7.0 mph /  11.3 km/h 12.0 mph /  19.3 km/h 96 % 0.01 in /  0.25 mm
06:36 38.1 °F /  3.4 °C 37.1 °F /  2.8 °C 29.02 in /  982.6 hPa NNE 9.0 mph /  14.5 km/h 14.0 mph /  22.5 km/h 96 % 0.01 in /  0.25 mm
06:41 38.1 °F /  3.4 °C 37.1 °F /  2.8 °C 29.02 in /  982.6 hPa North 8.0 mph /  12.9 km/h 15.0 mph /  24.1 km/h 96 % 0.00 in /  0 mm
06:46 38.0 °F /  3.3 °C 37.0 °F /  2.8 °C 29.02 in /  982.6 hPa NNE 8.0 mph /  12.9 km/h 14.0 mph /  22.5 km/h 96 % 0.00 in /  0 mm
06:51 38.0 °F /  3.3 °C 37.0 °F /  2.8 °C 29.02 in /  982.6 hPa NNE 7.0 mph /  11.3 km/h 13.0 mph /  20.9 km/h 96 % 0.01 in /  0.25 mm
06:56 37.9 °F /  3.3 °C 36.9 °F /  2.7 °C 29.02 in /  982.6 hPa NNE 9.0 mph /  14.5 km/h 17.0 mph /  27.4 km/h 96 % 0.00 in /  0 mm
07:01 37.9 °F /  3.3 °C 37.1 °F /  2.8 °C 29.02 in /  982.6 hPa North 7.3 mph /  11.7 km/h 11.5 mph /  18.5 km/h 97 % 0.17 in /  4.32 mm
07:06 37.8 °F /  3.2 °C 37.0 °F /  2.8 °C 29.01 in /  982.3 hPa NNE 8.0 mph /  12.9 km/h 11.5 mph /  18.5 km/h 97 % 0.16 in /  4.06 mm
07:11 37.8 °F /  3.2 °C 37.0 °F /  2.8 °C 29.01 in /  982.3 hPa NNW 7.3 mph /  11.7 km/h 12.7 mph /  20.4 km/h 97 % 0.18 in /  4.57 mm
07:16 37.8 °F /  3.2 °C 37.0 °F /  2.8 °C 29.00 in /  981.9 hPa NE 7.4 mph /  11.9 km/h 10.4 mph /  16.7 km/h 97 % 0.19 in /  4.83 mm
07:21 37.8 °F /  3.2 °C 37.0 °F /  2.8 °C 29.00 in /  981.9 hPa ENE 8.4 mph /  13.5 km/h 15.0 mph /  24.1 km/h 97 % 0.22 in /  5.59 mm
07:26 37.8 °F /  3.2 °C 37.0 °F /  2.8 °C 28.98 in /  981.3 hPa North 9.2 mph /  14.8 km/h 16.0 mph /  25.7 km/h 97 % 0.24 in /  6.1 mm
07:31 37.7 °F /  3.2 °C 36.9 °F /  2.7 °C 28.98 in /  981.3 hPa North 10.2 mph /  16.4 km/h 15.0 mph /  24.1 km/h 97 % 0.25 in /  6.35 mm
07:36 37.7 °F /  3.2 °C 36.9 °F /  2.7 °C 28.98 in /  981.3 hPa NNE 9.2 mph /  14.8 km/h 19.6 mph /  31.5 km/h 97 % 0.26 in /  6.6 mm
07:41 37.7 °F /  3.2 °C 36.9 °F /  2.7 °C 28.98 in /  981.3 hPa NE 7.2 mph /  11.6 km/h 11.5 mph /  18.5 km/h 97 % 0.28 in /  7.11 mm
07:46 37.7 °F /  3.2 °C 36.9 °F /  2.7 °C 28.98 in /  981.3 hPa North 9.2 mph /  14.8 km/h 13.8 mph /  22.2 km/h 97 % 0.29 in /  7.37 mm
07:52 37.7 °F /  3.2 °C 36.9 °F /  2.7 °C 28.98 in /  981.3 hPa North 10.3 mph /  16.6 km/h 13.8 mph /  22.2 km/h 97 % 0.29 in /  7.37 mm
07:57 37.8 °F /  3.2 °C 37.0 °F /  2.8 °C 28.98 in /  981.3 hPa NE 7.9 mph /  12.7 km/h 15.0 mph /  24.1 km/h 97 % 0.31 in /  7.87 mm
08:02 37.8 °F /  3.2 °C 37.0 °F /  2.8 °C 28.97 in /  980.9 hPa NNE 9.0 mph /  14.5 km/h 17.3 mph /  27.8 km/h 97 % 0.31 in /  7.87 mm
08:07 37.9 °F /  3.3 °C 37.1 °F /  2.8 °C 28.97 in /  980.9 hPa NNE 11.0 mph /  17.7 km/h 17.3 mph /  27.8 km/h 97 % 0.31 in /  7.87 mm
08:12 37.9 °F /  3.3 °C 37.1 °F /  2.8 °C 28.97 in /  980.9 hPa North 7.8 mph /  12.6 km/h 16.1 mph /  25.9 km/h 97 % 0.30 in /  7.62 mm
08:17 37.9 °F /  3.3 °C 37.1 °F /  2.8 °C 28.97 in /  980.9 hPa NNE 7.3 mph /  11.7 km/h 13.8 mph /  22.2 km/h 97 % 0.28 in /  7.11 mm
08:22 38.0 °F /  3.3 °C 37.2 °F /  2.9 °C 28.96 in /  980.6 hPa North 8.6 mph /  13.8 km/h 12.7 mph /  20.4 km/h 97 % 0.27 in /  6.86 mm
08:27 38.0 °F /  3.3 °C 37.2 °F /  2.9 °C 28.97 in /  980.9 hPa NE 10.0 mph /  16.1 km/h 18.4 mph /  29.6 km/h 97 % 0.25 in /  6.35 mm
08:32 38.1 °F /  3.4 °C 37.3 °F /  2.9 °C 28.96 in /  980.6 hPa NNE 8.2 mph /  13.2 km/h 13.8 mph /  22.2 km/h 97 % 0.23 in /  5.84 mm
08:37 38.1 °F /  3.4 °C 37.3 °F /  2.9 °C 28.96 in /  980.6 hPa NNW 6.3 mph /  10.1 km/h 8.1 mph /  13 km/h 97 % 0.21 in /  5.33 mm
08:42 38.2 °F /  3.4 °C 37.4 °F /  3 °C 28.96 in /  980.6 hPa NNE 7.2 mph /  11.6 km/h 13.8 mph /  22.2 km/h 97 % 0.20 in /  5.08 mm
08:47 38.2 °F /  3.4 °C 37.4 °F /  3 °C 28.96 in /  980.6 hPa North 6.7 mph /  10.8 km/h 11.5 mph /  18.5 km/h 97 % 0.19 in /  4.83 mm
08:52 38.3 °F /  3.5 °C 37.5 °F /  3.1 °C 28.96 in /  980.6 hPa NNE 8.3 mph /  13.4 km/h 11.5 mph /  18.5 km/h 97 % 0.18 in /  4.57 mm
08:57 38.3 °F /  3.5 °C 37.5 °F /  3.1 °C 28.96 in /  980.6 hPa North 5.9 mph /  9.5 km/h 11.5 mph /  18.5 km/h 97 % 0.17 in /  4.32 mm
09:02 38.2 °F /  3.4 °C 37.4 °F /  3 °C 28.96 in /  980.6 hPa NNE 7.5 mph /  12.1 km/h 11.5 mph /  18.5 km/h 97 % 0.16 in /  4.06 mm
09:07 38.3 °F /  3.5 °C 37.5 °F /  3.1 °C 28.96 in /  980.6 hPa NE 8.3 mph /  13.4 km/h 11.5 mph /  18.5 km/h 97 % 0.16 in /  4.06 mm
09:12 38.4 °F /  3.6 °C 37.6 °F /  3.1 °C 28.96 in /  980.6 hPa NNE 8.9 mph /  14.3 km/h 13.8 mph /  22.2 km/h 97 % 0.15 in /  3.81 mm
09:17 38.4 °F /  3.6 °C 37.6 °F /  3.1 °C 28.96 in /  980.6 hPa NNE 5.2 mph /  8.4 km/h 11.5 mph /  18.5 km/h 97 % 0.16 in /  4.06 mm
09:23 38.5 °F /  3.6 °C 37.7 °F /  3.2 °C 28.96 in /  980.6 hPa NNW 4.7 mph /  7.6 km/h 11.5 mph /  18.5 km/h 97 % 0.16 in /  4.06 mm
09:28 38.6 °F /  3.7 °C 37.8 °F /  3.2 °C 28.96 in /  980.6 hPa North 4.8 mph /  7.7 km/h 11.5 mph /  18.5 km/h 97 % 0.17 in /  4.32 mm
09:33 38.7 °F /  3.7 °C 37.9 °F /  3.3 °C 28.96 in /  980.6 hPa NNW 4.7 mph /  7.6 km/h 11.5 mph /  18.5 km/h 97 % 0.18 in /  4.57 mm
09:38 38.8 °F /  3.8 °C 38.0 °F /  3.3 °C 28.96 in /  980.6 hPa NNW 5.0 mph /  8 km/h 16.1 mph /  25.9 km/h 97 % 0.18 in /  4.57 mm
09:43 38.9 °F /  3.8 °C 38.1 °F /  3.4 °C 28.96 in /  980.6 hPa NNE 9.7 mph /  15.6 km/h 13.8 mph /  22.2 km/h 97 % 0.19 in /  4.83 mm
09:48 39.0 °F /  3.9 °C 38.2 °F /  3.4 °C 28.95 in /  980.2 hPa North 4.0 mph /  6.4 km/h 6.9 mph /  11.1 km/h 97 % 0.20 in /  5.08 mm
09:53 39.0 °F /  3.9 °C 38.2 °F /  3.4 °C 28.95 in /  980.2 hPa NNW 6.7 mph /  10.8 km/h 10.4 mph /  16.7 km/h 97 % 0.21 in /  5.33 mm
09:58 39.1 °F /  3.9 °C 38.3 °F /  3.5 °C 28.95 in /  980.2 hPa North 5.9 mph /  9.5 km/h 11.5 mph /  18.5 km/h 97 % 0.22 in /  5.59 mm
10:03 39.2 °F /  4 °C 38.4 °F /  3.6 °C 28.95 in /  980.2 hPa NNW 3.2 mph /  5.1 km/h 10.4 mph /  16.7 km/h 97 % 0.23 in /  5.84 mm
10:08 39.1 °F /  3.9 °C 38.3 °F /  3.5 °C 28.95 in /  980.2 hPa NNE 6.4 mph /  10.3 km/h 10.0 mph /  16.1 km/h 97 % 0.23 in /  5.84 mm
10:13 39.1 °F /  3.9 °C 38.3 °F /  3.5 °C 28.95 in /  980.2 hPa North 7.9 mph /  12.7 km/h 13.8 mph /  22.2 km/h 97 % 0.22 in /  5.59 mm
10:18 39.2 °F /  4 °C 38.4 °F /  3.6 °C 28.94 in /  979.9 hPa NNW 6.5 mph /  10.5 km/h 14.0 mph /  22.5 km/h 97 % 0.23 in /  5.84 mm
10:23 39.2 °F /  4 °C 38.4 °F /  3.6 °C 28.95 in /  980.2 hPa NW 9.0 mph /  14.5 km/h 15.0 mph /  24.1 km/h 97 % 0.23 in /  5.84 mm
10:28 39.1 °F /  3.9 °C 38.3 °F /  3.5 °C 28.95 in /  980.2 hPa NW 4.2 mph /  6.8 km/h 8.1 mph /  13 km/h 97 % 0.23 in /  5.84 mm
10:33 38.9 °F /  3.8 °C 38.1 °F /  3.4 °C 28.95 in /  980.2 hPa NNW 5.9 mph /  9.5 km/h 11.5 mph /  18.5 km/h 97 % 0.23 in /  5.84 mm
10:38 38.8 °F /  3.8 °C 38.0 °F /  3.3 °C 28.95 in /  980.2 hPa NNW 3.2 mph /  5.1 km/h 6.9 mph /  11.1 km/h 97 % 0.24 in /  6.1 mm
10:43 38.8 °F /  3.8 °C 38.0 °F /  3.3 °C 28.95 in /  980.2 hPa NNW 4.8 mph /  7.7 km/h 6.9 mph /  11.1 km/h 97 % 0.25 in /  6.35 mm
10:48 38.8 °F /  3.8 °C 38.0 °F /  3.3 °C 28.95 in /  980.2 hPa North 4.8 mph /  7.7 km/h 7.0 mph /  11.3 km/h 97 % 0.25 in /  6.35 mm
10:53 38.9 °F /  3.8 °C 38.1 °F /  3.4 °C 28.96 in /  980.6 hPa NNW 4.1 mph /  6.6 km/h 7.0 mph /  11.3 km/h 97 % 0.26 in /  6.6 mm
10:58 38.8 °F /  3.8 °C 38.0 °F /  3.3 °C 28.96 in /  980.6 hPa NW 6.5 mph /  10.5 km/h 11.5 mph /  18.5 km/h 97 % 0.26 in /  6.6 mm
11:03 38.7 °F /  3.7 °C 37.9 °F /  3.3 °C 28.97 in /  980.9 hPa NW 6.7 mph /  10.8 km/h 12.0 mph /  19.3 km/h 97 % 0.26 in /  6.6 mm
11:09 38.6 °F /  3.7 °C 37.8 °F /  3.2 °C 28.96 in /  980.6 hPa NNW 8.3 mph /  13.4 km/h 19.6 mph /  31.5 km/h 97 % 0.26 in /  6.6 mm
11:14 38.5 °F /  3.6 °C 37.7 °F /  3.2 °C 28.96 in /  980.6 hPa NW 8.0 mph /  12.9 km/h 15.0 mph /  24.1 km/h 97 % 0.27 in /  6.86 mm
11:19 38.4 °F /  3.6 °C 37.6 °F /  3.1 °C 28.96 in /  980.6 hPa NW 7.1 mph /  11.4 km/h 13.8 mph /  22.2 km/h 97 % 0.27 in /  6.86 mm
11:24 38.3 °F /  3.5 °C 37.5 °F /  3.1 °C 28.96 in /  980.6 hPa North 8.9 mph /  14.3 km/h 19.6 mph /  31.5 km/h 97 % 0.27 in /  6.86 mm
11:29 38.2 °F /  3.4 °C 37.2 °F /  2.9 °C 28.96 in /  980.6 hPa WNW 6.1 mph /  9.8 km/h 11.5 mph /  18.5 km/h 96 % 0.26 in /  6.6 mm
11:34 38.1 °F /  3.4 °C 37.1 °F /  2.8 °C 28.96 in /  980.6 hPa NNW 7.1 mph /  11.4 km/h 15.0 mph /  24.1 km/h 96 % 0.26 in /  6.6 mm
11:39 38.1 °F /  3.4 °C 37.1 °F /  2.8 °C 28.95 in /  980.2 hPa North 9.5 mph /  15.3 km/h 18.4 mph /  29.6 km/h 96 % 0.26 in /  6.6 mm
11:44 37.9 °F /  3.3 °C 36.9 °F /  2.7 °C 28.95 in /  980.2 hPa NNW 9.0 mph /  14.5 km/h 19.6 mph /  31.5 km/h 96 % 0.24 in /  6.1 mm
11:49 37.7 °F /  3.2 °C 36.7 °F /  2.6 °C 28.94 in /  979.9 hPa North 7.3 mph /  11.7 km/h 11.5 mph /  18.5 km/h 96 % 0.22 in /  5.59 mm
11:54 37.6 °F /  3.1 °C 36.6 °F /  2.6 °C 28.95 in /  980.2 hPa North 9.1 mph /  14.6 km/h 13.8 mph /  22.2 km/h 96 % 0.22 in /  5.59 mm
11:59 37.7 °F /  3.2 °C 36.7 °F /  2.6 °C 28.95 in /  980.2 hPa NNE 10.3 mph /  16.6 km/h 20.7 mph /  33.3 km/h 96 % 0.20 in /  5.08 mm
12:04 37.7 °F /  3.2 °C 36.7 °F /  2.6 °C 28.94 in /  979.9 hPa NW 11.0 mph /  17.7 km/h 18.4 mph /  29.6 km/h 96 % 0.19 in /  4.83 mm
12:09 37.6 °F /  3.1 °C 36.6 °F /  2.6 °C 28.94 in /  979.9 hPa NNE 13.5 mph /  21.7 km/h 26.5 mph /  42.6 km/h 96 % 0.17 in /  4.32 mm
12:14 37.5 °F /  3.1 °C 36.5 °F /  2.5 °C 28.94 in /  979.9 hPa NE 13.7 mph /  22 km/h 19.6 mph /  31.5 km/h 96 % 0.15 in /  3.81 mm
12:19 37.4 °F /  3 °C 36.4 °F /  2.4 °C 28.93 in /  979.6 hPa NNW 12.8 mph /  20.6 km/h 19.6 mph /  31.5 km/h 96 % 0.14 in /  3.56 mm
12:24 37.3 °F /  2.9 °C 36.3 °F /  2.4 °C 28.93 in /  979.6 hPa NNW 13.1 mph /  21.1 km/h 19.6 mph /  31.5 km/h 96 % 0.12 in /  3.05 mm
12:29 37.4 °F /  3 °C 36.4 °F /  2.4 °C 28.93 in /  979.6 hPa North 11.2 mph /  18 km/h 13.8 mph /  22.2 km/h 96 % 0.11 in /  2.79 mm
12:34 37.4 °F /  3 °C 36.4 °F /  2.4 °C 28.93 in /  979.6 hPa North 14.7 mph /  23.7 km/h 20.7 mph /  33.3 km/h 96 % 0.10 in /  2.54 mm
12:39 37.5 °F /  3.1 °C 36.5 °F /  2.5 °C 28.93 in /  979.6 hPa NNE 15.5 mph /  24.9 km/h 19.6 mph /  31.5 km/h 96 % 0.08 in /  2.03 mm
12:45 37.5 °F /  3.1 °C 36.5 °F /  2.5 °C 28.93 in /  979.6 hPa NW 15.0 mph /  24.1 km/h 21.9 mph /  35.2 km/h 96 % 0.07 in /  1.78 mm
12:50 37.5 °F /  3.1 °C 36.5 °F /  2.5 °C 28.93 in /  979.6 hPa NNW 17.0 mph /  27.4 km/h 31.0 mph /  49.9 km/h 96 % 0.07 in /  1.78 mm
12:55 37.4 °F /  3 °C 36.4 °F /  2.4 °C 28.93 in /  979.6 hPa NNW 13.9 mph /  22.4 km/h 29.9 mph /  48.1 km/h 96 % 0.05 in /  1.27 mm
13:00 37.4 °F /  3 °C 36.4 °F /  2.4 °C 28.93 in /  979.6 hPa NNW 16.9 mph /  27.2 km/h 38.0 mph /  61.2 km/h 96 % 0.04 in /  1.02 mm
13:05 37.2 °F /  2.9 °C 36.2 °F /  2.3 °C 28.94 in /  979.9 hPa NNW 15.7 mph /  25.3 km/h 35.7 mph /  57.5 km/h 96 % 0.05 in /  1.27 mm
13:10 37.2 °F /  2.9 °C 36.2 °F /  2.3 °C 28.94 in /  979.9 hPa NE 16.4 mph /  26.4 km/h 31.1 mph /  50 km/h 96 % 0.04 in /  1.02 mm
13:15 37.2 °F /  2.9 °C 36.2 °F /  2.3 °C 28.94 in /  979.9 hPa NNE 17.8 mph /  28.6 km/h 26.5 mph /  42.6 km/h 96 % 0.05 in /  1.27 mm
13:20 37.3 °F /  2.9 °C 36.3 °F /  2.4 °C 28.94 in /  979.9 hPa North 13.5 mph /  21.7 km/h 23.0 mph /  37 km/h 96 % 0.04 in /  1.02 mm
13:25 37.3 °F /  2.9 °C 36.3 °F /  2.4 °C 28.94 in /  979.9 hPa North 12.4 mph /  20 km/h 32.0 mph /  51.5 km/h 96 % 0.05 in /  1.27 mm
13:30 37.4 °F /  3 °C 36.1 °F /  2.3 °C 28.94 in /  979.9 hPa NNW 15.5 mph /  24.9 km/h 27.6 mph /  44.4 km/h 95 % 0.04 in /  1.02 mm
13:35 37.6 °F /  3.1 °C 36.6 °F /  2.6 °C 28.95 in /  980.2 hPa NNE 16.3 mph /  26.2 km/h 32.0 mph /  51.5 km/h 96 % 0.05 in /  1.27 mm
13:40 37.7 °F /  3.2 °C 36.4 °F /  2.4 °C 28.95 in /  980.2 hPa North 17.8 mph /  28.6 km/h 26.5 mph /  42.6 km/h 95 % 0.05 in /  1.27 mm
13:45 37.7 °F /  3.2 °C 36.4 °F /  2.4 °C 28.94 in /  979.9 hPa NNE 15.5 mph /  24.9 km/h 28.0 mph /  45.1 km/h 95 % 0.05 in /  1.27 mm
13:50 37.8 °F /  3.2 °C 36.5 °F /  2.5 °C 28.94 in /  979.9 hPa NE 13.9 mph /  22.4 km/h 28.0 mph /  45.1 km/h 95 % 0.04 in /  1.02 mm
13:55 37.8 °F /  3.2 °C 36.5 °F /  2.5 °C 28.95 in /  980.2 hPa NNE 13.7 mph /  22 km/h 23.0 mph /  37 km/h 95 % 0.04 in /  1.02 mm
14:00 37.8 °F /  3.2 °C 36.5 °F /  2.5 °C 28.95 in /  980.2 hPa North 15.7 mph /  25.3 km/h 28.8 mph /  46.3 km/h 95 % 0.04 in /  1.02 mm
14:05 37.8 °F /  3.2 °C 36.2 °F /  2.3 °C 28.96 in /  980.6 hPa NNW 15.6 mph /  25.1 km/h 25.3 mph /  40.7 km/h 94 % 0.03 in /  0.76 mm
14:10 37.9 °F /  3.3 °C 36.3 °F /  2.4 °C 28.97 in /  980.9 hPa NNE 13.7 mph /  22 km/h 24.2 mph /  38.9 km/h 94 % 0.03 in /  0.76 mm
14:15 38.0 °F /  3.3 °C 36.4 °F /  2.4 °C 28.97 in /  980.9 hPa NNE 14.0 mph /  22.5 km/h 18.4 mph /  29.6 km/h 94 % 0.02 in /  0.51 mm
14:20 38.1 °F /  3.4 °C 36.5 °F /  2.5 °C 28.97 in /  980.9 hPa North 11.7 mph /  18.8 km/h 26.5 mph /  42.6 km/h 94 % 0.03 in /  0.76 mm
14:26 38.1 °F /  3.4 °C 36.5 °F /  2.5 °C 28.97 in /  980.9 hPa NNW 16.0 mph /  25.7 km/h 36.0 mph /  57.9 km/h 94 % 0.00 in /  0 mm
14:31 38.1 °F /  3.4 °C 36.5 °F /  2.5 °C 28.97 in /  980.9 hPa North 16.0 mph /  25.7 km/h 35.0 mph /  56.3 km/h 94 % 0.00 in /  0 mm
14:36 38.0 °F /  3.3 °C 36.4 °F /  2.4 °C 28.98 in /  981.3 hPa North 14.0 mph /  22.5 km/h 28.0 mph /  45.1 km/h 94 % 0.00 in /  0 mm
14:41 38.1 °F /  3.4 °C 36.5 °F /  2.5 °C 28.98 in /  981.3 hPa North 14.0 mph /  22.5 km/h 25.0 mph /  40.2 km/h 94 % 0.00 in /  0 mm
14:46 38.1 °F /  3.4 °C 36.3 °F /  2.4 °C 28.99 in /  981.6 hPa North 15.0 mph /  24.1 km/h 29.0 mph /  46.7 km/h 93 % 0.00 in /  0 mm
14:51 38.1 °F /  3.4 °C 36.3 °F /  2.4 °C 29.00 in /  981.9 hPa North 18.0 mph /  29 km/h 29.0 mph /  46.7 km/h 93 % 0.00 in /  0 mm
14:56 38.2 °F /  3.4 °C 36.3 °F /  2.4 °C 29.00 in /  981.9 hPa North 15.0 mph /  24.1 km/h 27.0 mph /  43.5 km/h 93 % 0.00 in /  0 mm
15:01 38.1 °F /  3.4 °C 36.3 °F /  2.4 °C 29.00 in /  981.9 hPa NE 13.7 mph /  22 km/h 21.9 mph /  35.2 km/h 93 % 0.01 in /  0.25 mm
15:06 38.1 °F /  3.4 °C 36.3 °F /  2.4 °C 29.00 in /  981.9 hPa NNE 12.8 mph /  20.6 km/h 25.0 mph /  40.2 km/h 93 % 0.01 in /  0.25 mm
15:11 38.1 °F /  3.4 °C 36.3 °F /  2.4 °C 29.00 in /  981.9 hPa North 11.7 mph /  18.8 km/h 27.6 mph /  44.4 km/h 93 % 0.01 in /  0.25 mm
15:16 38.0 °F /  3.3 °C 36.2 °F /  2.3 °C 29.01 in /  982.3 hPa NE 14.2 mph /  22.9 km/h 26.5 mph /  42.6 km/h 93 % 0.01 in /  0.25 mm
15:21 38.0 °F /  3.3 °C 36.2 °F /  2.3 °C 29.02 in /  982.6 hPa NNW 12.8 mph /  20.6 km/h 20.7 mph /  33.3 km/h 93 % 0.00 in /  0 mm
15:26 38.0 °F /  3.3 °C 36.2 °F /  2.3 °C 29.02 in /  982.6 hPa NW 15.3 mph /  24.6 km/h 32.2 mph /  51.8 km/h 93 % 0.00 in /  0 mm
15:31 38.0 °F /  3.3 °C 36.2 °F /  2.3 °C 29.03 in /  983 hPa NNW 16.2 mph /  26.1 km/h 25.3 mph /  40.7 km/h 93 % 0.00 in /  0 mm
15:36 38.0 °F /  3.3 °C 36.2 °F /  2.3 °C 29.04 in /  983.3 hPa North 15.4 mph /  24.8 km/h 33.0 mph /  53.1 km/h 93 % 0.01 in /  0.25 mm
15:41 38.0 °F /  3.3 °C 36.2 °F /  2.3 °C 29.04 in /  983.3 hPa NNW 13.7 mph /  22 km/h 28.8 mph /  46.3 km/h 93 % 0.01 in /  0.25 mm
15:46 37.9 °F /  3.3 °C 36.1 °F /  2.3 °C 29.05 in /  983.6 hPa North 15.9 mph /  25.6 km/h 26.5 mph /  42.6 km/h 93 % 0.01 in /  0.25 mm
15:52 37.9 °F /  3.3 °C 36.1 °F /  2.3 °C 29.05 in /  983.6 hPa NE 16.5 mph /  26.6 km/h 29.9 mph /  48.1 km/h 93 % 0.01 in /  0.25 mm
15:57 37.9 °F /  3.3 °C 36.1 °F /  2.3 °C 29.05 in /  983.6 hPa NNW 15.3 mph /  24.6 km/h 22.0 mph /  35.4 km/h 93 % 0.01 in /  0.25 mm
16:02 37.8 °F /  3.2 °C 36.0 °F /  2.2 °C 29.06 in /  984 hPa NNW 17.5 mph /  28.2 km/h 29.9 mph /  48.1 km/h 93 % 0.01 in /  0.25 mm
16:07 37.7 °F /  3.2 °C 35.9 °F /  2.2 °C 29.06 in /  984 hPa NNW 15.7 mph /  25.3 km/h 22.0 mph /  35.4 km/h 93 % 0.01 in /  0.25 mm
16:12 37.6 °F /  3.1 °C 35.8 °F /  2.1 °C 29.07 in /  984.3 hPa North 19.2 mph /  30.9 km/h 26.5 mph /  42.6 km/h 93 % 0.01 in /  0.25 mm
16:17 37.6 °F /  3.1 °C 35.8 °F /  2.1 °C 29.08 in /  984.6 hPa North 14.3 mph /  23 km/h 19.6 mph /  31.5 km/h 93 % 0.01 in /  0.25 mm
16:23 37.5 °F /  3.1 °C 35.7 °F /  2.1 °C 29.08 in /  984.6 hPa North 16.0 mph /  25.7 km/h 23.0 mph /  37 km/h 93 % 0.01 in /  0.25 mm
16:28 37.5 °F /  3.1 °C 35.7 °F /  2.1 °C 29.08 in /  984.6 hPa NNE 17.2 mph /  27.7 km/h 26.5 mph /  42.6 km/h 93 % 0.02 in /  0.51 mm
16:33 37.4 °F /  3 °C 35.6 °F /  2 °C 29.10 in /  985.3 hPa NNE 14.1 mph /  22.7 km/h 28.8 mph /  46.3 km/h 93 % 0.01 in /  0.25 mm
16:38 37.4 °F /  3 °C 35.6 °F /  2 °C 29.10 in /  985.3 hPa North 15.9 mph /  25.6 km/h 27.6 mph /  44.4 km/h 93 % 0.01 in /  0.25 mm
16:43 37.3 °F /  2.9 °C 35.5 °F /  1.9 °C 29.11 in /  985.7 hPa NNE 10.9 mph /  17.5 km/h 29.9 mph /  48.1 km/h 93 % 0.01 in /  0.25 mm
16:48 37.3 °F /  2.9 °C 35.5 °F /  1.9 °C 29.12 in /  986 hPa NW 13.3 mph /  21.4 km/h 21.9 mph /  35.2 km/h 93 % 0.01 in /  0.25 mm
16:53 37.2 °F /  2.9 °C 35.4 °F /  1.9 °C 29.12 in /  986 hPa NNW 15.9 mph /  25.6 km/h 25.3 mph /  40.7 km/h 93 % 0.01 in /  0.25 mm
16:58 37.1 °F /  2.8 °C 35.3 °F /  1.8 °C 29.14 in /  986.7 hPa NNE 13.9 mph /  22.4 km/h 33.4 mph /  53.8 km/h 93 % 0.01 in /  0.25 mm
17:03 37.0 °F /  2.8 °C 35.2 °F /  1.8 °C 29.14 in /  986.7 hPa NE 17.0 mph /  27.4 km/h 29.9 mph /  48.1 km/h 93 % 0.02 in /  0.51 mm
17:08 36.9 °F /  2.7 °C 35.1 °F /  1.7 °C 29.14 in /  986.7 hPa NW 13.7 mph /  22 km/h 26.5 mph /  42.6 km/h 93 % 0.02 in /  0.51 mm
17:13 36.8 °F /  2.7 °C 35.2 °F /  1.8 °C 29.15 in /  987 hPa North 14.6 mph /  23.5 km/h 25.3 mph /  40.7 km/h 94 % 0.02 in /  0.51 mm
17:19 36.8 °F /  2.7 °C 35.2 °F /  1.8 °C 29.16 in /  987.4 hPa NNE 13.8 mph /  22.2 km/h 25.3 mph /  40.7 km/h 94 % 0.03 in /  0.76 mm
17:24 36.8 °F /  2.7 °C 35.2 °F /  1.8 °C 29.16 in /  987.4 hPa North 13.8 mph /  22.2 km/h 27.6 mph /  44.4 km/h 94 % 0.02 in /  0.51 mm
17:29 37.0 °F /  2.8 °C 35.4 °F /  1.9 °C 29.17 in /  987.7 hPa NNW 13.1 mph /  21.1 km/h 29.9 mph /  48.1 km/h 94 % 0.02 in /  0.51 mm
17:34 37.1 °F /  2.8 °C 35.5 °F /  1.9 °C 29.17 in /  987.7 hPa North 14.8 mph /  23.8 km/h 28.0 mph /  45.1 km/h 94 % 0.02 in /  0.51 mm
17:39 37.2 °F /  2.9 °C 35.6 °F /  2 °C 29.17 in /  987.7 hPa NNW 10.5 mph /  16.9 km/h 31.1 mph /  50 km/h 94 % 0.02 in /  0.51 mm
17:44 37.3 °F /  2.9 °C 35.5 °F /  1.9 °C 29.19 in /  988.4 hPa North 13.8 mph /  22.2 km/h 25.3 mph /  40.7 km/h 93 % 0.03 in /  0.76 mm
17:49 37.4 °F /  3 °C 35.6 °F /  2 °C 29.20 in /  988.7 hPa NNW 14.2 mph /  22.9 km/h 25.3 mph /  40.7 km/h 93 % 0.03 in /  0.76 mm
17:54 37.4 °F /  3 °C 35.6 °F /  2 °C 29.21 in /  989.1 hPa North 17.7 mph /  28.5 km/h 32.2 mph /  51.8 km/h 93 % 0.03 in /  0.76 mm
17:59 37.5 °F /  3.1 °C 35.7 °F /  2.1 °C 29.21 in /  989.1 hPa NE 17.5 mph /  28.2 km/h 26.5 mph /  42.6 km/h 93 % 0.03 in /  0.76 mm
18:04 37.6 °F /  3.1 °C 35.5 °F /  1.9 °C 29.22 in /  989.4 hPa North 11.6 mph /  18.7 km/h 23.0 mph /  37 km/h 92 % 0.02 in /  0.51 mm
18:09 37.7 °F /  3.2 °C 35.6 °F /  2 °C 29.23 in /  989.7 hPa North 13.6 mph /  21.9 km/h 20.0 mph /  32.2 km/h 92 % 0.02 in /  0.51 mm
18:14 37.7 °F /  3.2 °C 35.6 °F /  2 °C 29.23 in /  989.7 hPa NNW 11.2 mph /  18 km/h 19.6 mph /  31.5 km/h 92 % 0.01 in /  0.25 mm
18:19 37.8 °F /  3.2 °C 35.4 °F /  1.9 °C 29.24 in /  990.1 hPa NNW 16.6 mph /  26.7 km/h 26.5 mph /  42.6 km/h 91 % 0.01 in /  0.25 mm
18:24 37.9 °F /  3.3 °C 35.5 °F /  1.9 °C 29.24 in /  990.1 hPa NNW 10.9 mph /  17.5 km/h 19.6 mph /  31.5 km/h 91 % 0.01 in /  0.25 mm
18:29 37.9 °F /  3.3 °C 35.5 °F /  1.9 °C 29.25 in /  990.4 hPa NNW 9.2 mph /  14.8 km/h 20.7 mph /  33.3 km/h 91 % 0.01 in /  0.25 mm
18:34 37.9 °F /  3.3 °C 35.5 °F /  1.9 °C 29.26 in /  990.7 hPa NNW 12.3 mph /  19.8 km/h 21.9 mph /  35.2 km/h 91 % 0.01 in /  0.25 mm
18:39 37.9 °F /  3.3 °C 35.5 °F /  1.9 °C 29.27 in /  991.1 hPa NNE 9.8 mph /  15.8 km/h 15.0 mph /  24.1 km/h 91 % 0.01 in /  0.25 mm
18:44 37.8 °F /  3.2 °C 35.4 °F /  1.9 °C 29.27 in /  991.1 hPa NNE 9.5 mph /  15.3 km/h 16.1 mph /  25.9 km/h 91 % 0.00 in /  0 mm
18:49 37.7 °F /  3.2 °C 35.3 °F /  1.8 °C 29.28 in /  991.4 hPa NNE 12.5 mph /  20.1 km/h 20.7 mph /  33.3 km/h 91 % 0.00 in /  0 mm
18:55 37.7 °F /  3.2 °C 35.3 °F /  1.8 °C 29.28 in /  991.4 hPa North 11.5 mph /  18.5 km/h 17.3 mph /  27.8 km/h 91 % 0.00 in /  0 mm
19:00 37.7 °F /  3.2 °C 35.3 °F /  1.8 °C 29.28 in /  991.4 hPa NNW 12.1 mph /  19.5 km/h 13.8 mph /  22.2 km/h 91 % 0.00 in /  0 mm
19:05 37.7 °F /  3.2 °C 35.3 °F /  1.8 °C 29.28 in /  991.4 hPa NNW 10.7 mph /  17.2 km/h 19.6 mph /  31.5 km/h 91 % 0.00 in /  0 mm
19:10 37.7 °F /  3.2 °C 35.3 °F /  1.8 °C 29.29 in /  991.8 hPa NNW 10.3 mph /  16.6 km/h 21.0 mph /  33.8 km/h 91 % 0.00 in /  0 mm
19:15 37.7 °F /  3.2 °C 35.3 °F /  1.8 °C 29.28 in /  991.4 hPa NE 9.9 mph /  15.9 km/h 19.0 mph /  30.6 km/h 91 % 0.00 in /  0 mm
19:20 37.7 °F /  3.2 °C 35.3 °F /  1.8 °C 29.29 in /  991.8 hPa NW 9.8 mph /  15.8 km/h 19.0 mph /  30.6 km/h 91 % 0.00 in /  0 mm
19:25 37.8 °F /  3.2 °C 35.4 °F /  1.9 °C 29.30 in /  992.1 hPa NNW 11.0 mph /  17.7 km/h 18.4 mph /  29.6 km/h 91 % 0.00 in /  0 mm
19:30 37.9 °F /  3.3 °C 35.2 °F /  1.8 °C 29.30 in /  992.1 hPa NNW 8.5 mph /  13.7 km/h 17.3 mph /  27.8 km/h 90 % 0.00 in /  0 mm
19:35 37.9 °F /  3.3 °C 35.2 °F /  1.8 °C 29.30 in /  992.1 hPa NNE 13.2 mph /  21.2 km/h 24.2 mph /  38.9 km/h 90 % 0.00 in /  0 mm
19:40 38.0 °F /  3.3 °C 35.3 °F /  1.8 °C 29.31 in /  992.4 hPa ENE 9.8 mph /  15.8 km/h 22.0 mph /  35.4 km/h 90 % 0.00 in /  0 mm
19:45 38.0 °F /  3.3 °C 35.0 °F /  1.7 °C 29.32 in /  992.8 hPa WNW 9.5 mph /  15.3 km/h 12.7 mph /  20.4 km/h 89 % 0.00 in /  0 mm
19:50 38.1 °F /  3.4 °C 35.1 °F /  1.7 °C 29.31 in /  992.4 hPa NNW 11.7 mph /  18.8 km/h 16.1 mph /  25.9 km/h 89 % 0.00 in /  0 mm
19:55 38.2 °F /  3.4 °C 35.2 °F /  1.8 °C 29.31 in /  992.4 hPa NW 10.0 mph /  16.1 km/h 20.7 mph /  33.3 km/h 89 % 0.00 in /  0 mm
20:00 38.2 °F /  3.4 °C 35.0 °F /  1.7 °C 29.31 in /  992.4 hPa NNW 8.7 mph /  14 km/h 19.6 mph /  31.5 km/h 88 % 0.00 in /  0 mm
20:05 38.2 °F /  3.4 °C 35.0 °F /  1.7 °C 29.31 in /  992.4 hPa NNW 10.3 mph /  16.6 km/h 15.0 mph /  24.1 km/h 88 % 0.00 in /  0 mm
20:10 38.3 °F /  3.5 °C 35.1 °F /  1.7 °C 29.32 in /  992.8 hPa NW 10.0 mph /  16.1 km/h 17.3 mph /  27.8 km/h 88 % 0.00 in /  0 mm
20:15 38.2 °F /  3.4 °C 35.0 °F /  1.7 °C 29.32 in /  992.8 hPa NW 8.8 mph /  14.2 km/h 20.7 mph /  33.3 km/h 88 % 0.00 in /  0 mm
20:20 38.2 °F /  3.4 °C 35.0 °F /  1.7 °C 29.33 in /  993.1 hPa NW 12.6 mph /  20.3 km/h 25.0 mph /  40.2 km/h 88 % 0.00 in /  0 mm
20:25 38.1 °F /  3.4 °C 34.9 °F /  1.6 °C 29.33 in /  993.1 hPa North 8.5 mph /  13.7 km/h 15.0 mph /  24.1 km/h 88 % 0.00 in /  0 mm
20:30 38.1 °F /  3.4 °C 34.9 °F /  1.6 °C 29.34 in /  993.5 hPa North 11.0 mph /  17.7 km/h 21.9 mph /  35.2 km/h 88 % 0.00 in /  0 mm
20:36 38.1 °F /  3.4 °C 34.6 °F /  1.4 °C 29.34 in /  993.5 hPa NNW 12.8 mph /  20.6 km/h 15.0 mph /  24.1 km/h 87 % 0.00 in /  0 mm
20:41 38.1 °F /  3.4 °C 34.6 °F /  1.4 °C 29.35 in /  993.8 hPa NNW 10.0 mph /  16.1 km/h 20.0 mph /  32.2 km/h 87 % 0.00 in /  0 mm
20:46 38.1 °F /  3.4 °C 34.5 °F /  1.4 °C 29.35 in /  993.8 hPa NNW 9.0 mph /  14.5 km/h 21.0 mph /  33.8 km/h 87 % 0.00 in /  0 mm
20:50 38.0 °F /  3.3 °C 34.5 °F /  1.4 °C 29.35 in /  993.8 hPa North 9.7 mph /  15.6 km/h 26.5 mph /  42.6 km/h 87 % 0.00 in /  0 mm
20:56 38.1 °F /  3.4 °C 34.5 °F /  1.4 °C 29.35 in /  993.8 hPa North 8.0 mph /  12.9 km/h 17.0 mph /  27.4 km/h 87 % 0.00 in /  0 mm
21:01 38.0 °F /  3.3 °C 34.5 °F /  1.4 °C 29.36 in /  994.1 hPa NNW 6.6 mph /  10.6 km/h 13.8 mph /  22.2 km/h 87 % 0.00 in /  0 mm
21:06 37.9 °F /  3.3 °C 34.4 °F /  1.3 °C 29.37 in /  994.5 hPa WNW 9.5 mph /  15.3 km/h 19.6 mph /  31.5 km/h 87 % 0.00 in /  0 mm
21:11 37.9 °F /  3.3 °C 34.4 °F /  1.3 °C 29.37 in /  994.5 hPa NNW 8.5 mph /  13.7 km/h 15.0 mph /  24.1 km/h 87 % 0.00 in /  0 mm
21:16 37.9 °F /  3.3 °C 34.4 °F /  1.3 °C 29.38 in /  994.8 hPa NNE 10.9 mph /  17.5 km/h 20.7 mph /  33.3 km/h 87 % 0.00 in /  0 mm
21:21 38.0 °F /  3.3 °C 34.5 °F /  1.4 °C 29.38 in /  994.8 hPa NNW 8.0 mph /  12.9 km/h 13.8 mph /  22.2 km/h 87 % 0.00 in /  0 mm
21:26 38.0 °F /  3.3 °C 34.2 °F /  1.2 °C 29.39 in /  995.1 hPa NNE 13.0 mph /  20.9 km/h 19.6 mph /  31.5 km/h 86 % 0.00 in /  0 mm
21:31 38.1 °F /  3.4 °C 34.3 °F /  1.3 °C 29.40 in /  995.5 hPa North 10.4 mph /  16.7 km/h 17.3 mph /  27.8 km/h 86 % 0.00 in /  0 mm
21:36 38.2 °F /  3.4 °C 34.4 °F /  1.3 °C 29.40 in /  995.5 hPa North 9.5 mph /  15.3 km/h 13.8 mph /  22.2 km/h 86 % 0.00 in /  0 mm
21:41 38.2 °F /  3.4 °C 34.1 °F /  1.2 °C 29.40 in /  995.5 hPa North 11.1 mph /  17.9 km/h 20.7 mph /  33.3 km/h 85 % 0.00 in /  0 mm
21:46 38.2 °F /  3.4 °C 34.1 °F /  1.2 °C 29.40 in /  995.5 hPa NNW 5.0 mph /  8 km/h 11.5 mph /  18.5 km/h 85 % 0.00 in /  0 mm
21:51 38.2 °F /  3.4 °C 34.1 °F /  1.2 °C 29.41 in /  995.8 hPa North 6.1 mph /  9.8 km/h 11.5 mph /  18.5 km/h 85 % 0.00 in /  0 mm
21:56 38.1 °F /  3.4 °C 34.0 °F /  1.1 °C 29.42 in /  996.2 hPa North 13.2 mph /  21.2 km/h 20.7 mph /  33.3 km/h 85 % 0.00 in /  0 mm
22:01 38.1 °F /  3.4 °C 34.0 °F /  1.1 °C 29.42 in /  996.2 hPa NW 7.5 mph /  12.1 km/h 12.0 mph /  19.3 km/h 85 % 0.00 in /  0 mm
22:06 38.1 °F /  3.4 °C 34.0 °F /  1.1 °C 29.42 in /  996.2 hPa North 8.0 mph /  12.9 km/h 13.8 mph /  22.2 km/h 85 % 0.00 in /  0 mm
22:11 38.0 °F /  3.3 °C 33.9 °F /  1.1 °C 29.43 in /  996.5 hPa NNW 10.0 mph /  16.1 km/h 19.6 mph /  31.5 km/h 85 % 0.00 in /  0 mm
22:16 37.9 °F /  3.3 °C 34.1 °F /  1.2 °C 29.42 in /  996.2 hPa NNW 5.4 mph /  8.7 km/h 11.5 mph /  18.5 km/h 86 % 0.00 in /  0 mm
22:21 37.9 °F /  3.3 °C 33.8 °F /  1 °C 29.43 in /  996.5 hPa North 12.6 mph /  20.3 km/h 26.5 mph /  42.6 km/h 85 % 0.00 in /  0 mm
22:26 37.8 °F /  3.2 °C 33.7 °F /  0.9 °C 29.43 in /  996.5 hPa NNE 11.3 mph /  18.2 km/h 19.6 mph /  31.5 km/h 85 % 0.00 in /  0 mm
22:31 37.8 °F /  3.2 °C 33.7 °F /  0.9 °C 29.43 in /  996.5 hPa North 6.3 mph /  10.1 km/h 12.7 mph /  20.4 km/h 85 % 0.00 in /  0 mm
22:37 37.7 °F /  3.2 °C 33.9 °F /  1.1 °C 29.43 in /  996.5 hPa NNE 10.4 mph /  16.7 km/h 13.8 mph /  22.2 km/h 86 % 0.00 in /  0 mm
22:42 37.7 °F /  3.2 °C 33.9 °F /  1.1 °C 29.43 in /  996.5 hPa NNE 8.7 mph /  14 km/h 16.1 mph /  25.9 km/h 86 % 0.00 in /  0 mm
22:47 37.7 °F /  3.2 °C 33.9 °F /  1.1 °C 29.44 in /  996.8 hPa North 8.2 mph /  13.2 km/h 23.0 mph /  37 km/h 86 % 0.00 in /  0 mm
22:52 37.7 °F /  3.2 °C 33.6 °F /  0.9 °C 29.44 in /  996.8 hPa North 6.8 mph /  10.9 km/h 25.0 mph /  40.2 km/h 85 % 0.00 in /  0 mm
22:57 37.7 °F /  3.2 °C 33.6 °F /  0.9 °C 29.44 in /  996.8 hPa NNE 8.4 mph /  13.5 km/h 17.3 mph /  27.8 km/h 85 % 0.00 in /  0 mm
23:02 37.8 °F /  3.2 °C 33.7 °F /  0.9 °C 29.45 in /  997.2 hPa North 6.7 mph /  10.8 km/h 19.6 mph /  31.5 km/h 85 % 0.00 in /  0 mm
23:07 37.7 °F /  3.2 °C 33.6 °F /  0.9 °C 29.45 in /  997.2 hPa NNW 8.0 mph /  12.9 km/h 16.1 mph /  25.9 km/h 85 % 0.00 in /  0 mm
23:12 37.7 °F /  3.2 °C 33.6 °F /  0.9 °C 29.45 in /  997.2 hPa NW 12.2 mph /  19.6 km/h 17.3 mph /  27.8 km/h 85 % 0.00 in /  0 mm
23:17 37.6 °F /  3.1 °C 33.5 °F /  0.8 °C 29.45 in /  997.2 hPa NNE 10.3 mph /  16.6 km/h 20.7 mph /  33.3 km/h 85 % 0.00 in /  0 mm
23:22 37.6 °F /  3.1 °C 33.5 °F /  0.8 °C 29.46 in /  997.5 hPa North 10.2 mph /  16.4 km/h 20.7 mph /  33.3 km/h 85 % 0.00 in /  0 mm
23:27 37.6 °F /  3.1 °C 33.5 °F /  0.8 °C 29.46 in /  997.5 hPa NNW 9.5 mph /  15.3 km/h 17.3 mph /  27.8 km/h 85 % 0.00 in /  0 mm
23:32 37.6 °F /  3.1 °C 33.5 °F /  0.8 °C 29.46 in /  997.5 hPa NNE 11.4 mph /  18.3 km/h 19.6 mph /  31.5 km/h 85 % 0.00 in /  0 mm
23:37 37.6 °F /  3.1 °C 33.2 °F /  0.7 °C 29.46 in /  997.5 hPa North 10.9 mph /  17.5 km/h 17.3 mph /  27.8 km/h 84 % 0.00 in /  0 mm
23:42 37.6 °F /  3.1 °C 33.5 °F /  0.8 °C 29.46 in /  997.5 hPa NNE 15.3 mph /  24.6 km/h 20.7 mph /  33.3 km/h 85 % 0.00 in /  0 mm
23:47 37.6 °F /  3.1 °C 33.2 °F /  0.7 °C 29.47 in /  997.9 hPa NNW 7.5 mph /  12.1 km/h 11.5 mph /  18.5 km/h 84 % 0.00 in /  0 mm
23:52 37.5 °F /  3.1 °C 33.1 °F /  0.6 °C 29.46 in /  997.5 hPa NNW 8.5 mph /  13.7 km/h 13.8 mph /  22.2 km/h 84 % 0.00 in /  0 mm
23:57 37.5 °F /  3.1 °C 33.1 °F /  0.6 °C 29.47 in /  997.9 hPa NNE 10.5 mph /  16.9 km/h 23.0 mph /  37 km/h 84 % 0.00 in /  0 mm
Crab Meadow Weather
Compliments of Weather Underground - 3 mb

Script developed by  Jim McMurry - jmcmurry@mwt.net Adapted for the template by  Wim van der Kuil - Leuven-Template.eu

Weather Terms: Flood Stage - The level or stage at which a stream overflows its banks or the stage at which the overflow of a stream begins to cause damage.